sensor_id;sensor_type;location;lat;lon;timestamp;P1;durP1;ratioP1;P2;durP2;ratioP2
24008;SDS011;12217;50.792;4.372;2024-03-07T00:00:13;18.63;;;12.35;;
24008;SDS011;12217;50.792;4.372;2024-03-07T00:02:47;15.32;;;11.90;;
24008;SDS011;12217;50.792;4.372;2024-03-07T00:05:20;12.82;;;11.05;;
24008;SDS011;12217;50.792;4.372;2024-03-07T00:07:49;14.93;;;11.18;;
24008;SDS011;12217;50.792;4.372;2024-03-07T00:10:15;17.40;;;11.27;;
24008;SDS011;12217;50.792;4.372;2024-03-07T00:12:41;12.75;;;11.05;;
24008;SDS011;12217;50.792;4.372;2024-03-07T00:15:08;15.23;;;11.50;;
24008;SDS011;12217;50.792;4.372;2024-03-07T00:17:35;16.65;;;11.70;;
24008;SDS011;12217;50.792;4.372;2024-03-07T00:20:02;17.30;;;13.57;;
24008;SDS011;12217;50.792;4.372;2024-03-07T00:22:34;16.83;;;12.13;;
24008;SDS011;12217;50.792;4.372;2024-03-07T00:25:03;17.65;;;12.98;;
24008;SDS011;12217;50.792;4.372;2024-03-07T00:27:30;20.88;;;13.00;;
24008;SDS011;12217;50.792;4.372;2024-03-07T00:29:56;15.68;;;12.45;;
24008;SDS011;12217;50.792;4.372;2024-03-07T00:32:23;19.55;;;13.75;;
24008;SDS011;12217;50.792;4.372;2024-03-07T00:34:49;21.30;;;14.65;;
24008;SDS011;12217;50.792;4.372;2024-03-07T00:37:15;26.13;;;17.00;;
24008;SDS011;12217;50.792;4.372;2024-03-07T00:39:41;25.35;;;17.55;;
24008;SDS011;12217;50.792;4.372;2024-03-07T00:42:07;30.40;;;19.70;;
24008;SDS011;12217;50.792;4.372;2024-03-07T00:44:33;29.88;;;18.92;;
24008;SDS011;12217;50.792;4.372;2024-03-07T00:47:02;30.92;;;21.70;;
24008;SDS011;12217;50.792;4.372;2024-03-07T00:49:28;33.22;;;23.08;;
24008;SDS011;12217;50.792;4.372;2024-03-07T00:51:55;35.67;;;23.75;;
24008;SDS011;12217;50.792;4.372;2024-03-07T00:54:21;36.28;;;24.20;;
24008;SDS011;12217;50.792;4.372;2024-03-07T00:56:47;37.10;;;24.85;;
24008;SDS011;12217;50.792;4.372;2024-03-07T00:59:16;38.65;;;24.95;;
24008;SDS011;12217;50.792;4.372;2024-03-07T01:01:41;36.13;;;25.13;;
24008;SDS011;12217;50.792;4.372;2024-03-07T01:04:07;38.45;;;26.27;;
24008;SDS011;12217;50.792;4.372;2024-03-07T01:06:33;38.53;;;26.50;;
24008;SDS011;12217;50.792;4.372;2024-03-07T01:09:01;38.65;;;25.15;;
24008;SDS011;12217;50.792;4.372;2024-03-07T01:11:27;41.92;;;27.33;;
24008;SDS011;12217;50.792;4.372;2024-03-07T01:13:53;41.25;;;27.33;;
24008;SDS011;12217;50.792;4.372;2024-03-07T01:16:18;42.88;;;27.75;;
24008;SDS011;12217;50.792;4.372;2024-03-07T01:18:44;42.05;;;28.08;;
24008;SDS011;12217;50.792;4.372;2024-03-07T01:21:10;45.20;;;30.27;;
24008;SDS011;12217;50.792;4.372;2024-03-07T01:23:35;43.50;;;28.33;;
24008;SDS011;12217;50.792;4.372;2024-03-07T01:26:01;40.13;;;27.58;;
24008;SDS011;12217;50.792;4.372;2024-03-07T01:28:27;45.55;;;29.70;;
24008;SDS011;12217;50.792;4.372;2024-03-07T01:30:57;43.55;;;29.10;;
24008;SDS011;12217;50.792;4.372;2024-03-07T01:33:23;48.97;;;33.13;;
24008;SDS011;12217;50.792;4.372;2024-03-07T01:35:48;53.10;;;34.85;;
24008;SDS011;12217;50.792;4.372;2024-03-07T01:38:15;54.30;;;34.03;;
24008;SDS011;12217;50.792;4.372;2024-03-07T01:40:42;52.85;;;34.60;;
24008;SDS011;12217;50.792;4.372;2024-03-07T01:43:08;55.42;;;34.65;;
24008;SDS011;12217;50.792;4.372;2024-03-07T01:45:35;56.15;;;34.72;;
24008;SDS011;12217;50.792;4.372;2024-03-07T01:48:09;55.50;;;35.95;;
24008;SDS011;12217;50.792;4.372;2024-03-07T01:50:36;59.10;;;35.20;;
24008;SDS011;12217;50.792;4.372;2024-03-07T01:53:08;53.50;;;33.95;;
24008;SDS011;12217;50.792;4.372;2024-03-07T01:55:36;55.70;;;36.58;;
24008;SDS011;12217;50.792;4.372;2024-03-07T01:58:02;58.90;;;37.58;;
24008;SDS011;12217;50.792;4.372;2024-03-07T02:00:30;61.60;;;37.75;;
24008;SDS011;12217;50.792;4.372;2024-03-07T02:02:56;60.75;;;37.45;;
24008;SDS011;12217;50.792;4.372;2024-03-07T02:05:22;59.40;;;37.85;;
24008;SDS011;12217;50.792;4.372;2024-03-07T02:07:48;63.10;;;39.35;;
24008;SDS011;12217;50.792;4.372;2024-03-07T02:10:14;65.40;;;40.65;;
24008;SDS011;12217;50.792;4.372;2024-03-07T02:12:41;64.07;;;39.70;;
24008;SDS011;12217;50.792;4.372;2024-03-07T02:15:07;71.28;;;41.95;;
24008;SDS011;12217;50.792;4.372;2024-03-07T02:17:33;68.10;;;41.70;;
24008;SDS011;12217;50.792;4.372;2024-03-07T02:19:59;67.45;;;41.92;;
24008;SDS011;12217;50.792;4.372;2024-03-07T02:22:25;68.10;;;42.08;;
24008;SDS011;12217;50.792;4.372;2024-03-07T02:24:51;68.40;;;41.33;;
24008;SDS011;12217;50.792;4.372;2024-03-07T02:27:18;67.97;;;42.97;;
24008;SDS011;12217;50.792;4.372;2024-03-07T02:29:43;70.22;;;42.90;;
24008;SDS011;12217;50.792;4.372;2024-03-07T02:32:09;67.47;;;43.08;;
24008;SDS011;12217;50.792;4.372;2024-03-07T02:34:35;68.28;;;42.38;;
24008;SDS011;12217;50.792;4.372;2024-03-07T02:37:01;69.20;;;43.17;;
24008;SDS011;12217;50.792;4.372;2024-03-07T02:39:26;68.95;;;42.72;;
24008;SDS011;12217;50.792;4.372;2024-03-07T02:41:52;69.18;;;42.80;;
24008;SDS011;12217;50.792;4.372;2024-03-07T02:44:18;72.00;;;44.92;;
24008;SDS011;12217;50.792;4.372;2024-03-07T02:46:44;69.18;;;43.58;;
24008;SDS011;12217;50.792;4.372;2024-03-07T02:49:10;77.35;;;47.65;;
24008;SDS011;12217;50.792;4.372;2024-03-07T02:51:35;75.90;;;46.25;;
24008;SDS011;12217;50.792;4.372;2024-03-07T02:54:01;80.72;;;49.13;;
24008;SDS011;12217;50.792;4.372;2024-03-07T02:56:30;75.60;;;45.83;;
24008;SDS011;12217;50.792;4.372;2024-03-07T02:58:56;73.25;;;45.00;;
24008;SDS011;12217;50.792;4.372;2024-03-07T03:01:21;69.93;;;43.22;;
24008;SDS011;12217;50.792;4.372;2024-03-07T03:03:47;68.88;;;43.63;;
24008;SDS011;12217;50.792;4.372;2024-03-07T03:06:12;70.32;;;44.97;;
24008;SDS011;12217;50.792;4.372;2024-03-07T03:08:38;71.53;;;43.30;;
24008;SDS011;12217;50.792;4.372;2024-03-07T03:11:04;73.10;;;42.47;;
24008;SDS011;12217;50.792;4.372;2024-03-07T03:13:29;67.82;;;43.67;;
24008;SDS011;12217;50.792;4.372;2024-03-07T03:15:55;70.68;;;43.60;;
24008;SDS011;12217;50.792;4.372;2024-03-07T03:18:24;70.95;;;43.67;;
24008;SDS011;12217;50.792;4.372;2024-03-07T03:20:50;68.63;;;42.90;;
24008;SDS011;12217;50.792;4.372;2024-03-07T03:23:17;76.25;;;45.13;;
24008;SDS011;12217;50.792;4.372;2024-03-07T03:25:43;73.55;;;45.05;;
24008;SDS011;12217;50.792;4.372;2024-03-07T03:28:10;72.05;;;44.15;;
24008;SDS011;12217;50.792;4.372;2024-03-07T03:30:36;78.57;;;46.78;;
24008;SDS011;12217;50.792;4.372;2024-03-07T03:33:03;74.32;;;45.05;;
24008;SDS011;12217;50.792;4.372;2024-03-07T03:35:30;76.43;;;47.15;;
24008;SDS011;12217;50.792;4.372;2024-03-07T03:37:56;74.35;;;44.72;;
24008;SDS011;12217;50.792;4.372;2024-03-07T03:40:21;73.32;;;44.33;;
24008;SDS011;12217;50.792;4.372;2024-03-07T03:42:47;74.63;;;45.15;;
24008;SDS011;12217;50.792;4.372;2024-03-07T03:45:13;72.05;;;44.70;;
24008;SDS011;12217;50.792;4.372;2024-03-07T03:47:42;73.30;;;44.72;;
24008;SDS011;12217;50.792;4.372;2024-03-07T03:50:09;78.28;;;46.95;;
24008;SDS011;12217;50.792;4.372;2024-03-07T03:52:36;78.47;;;47.13;;
24008;SDS011;12217;50.792;4.372;2024-03-07T03:55:02;69.47;;;44.75;;
24008;SDS011;12217;50.792;4.372;2024-03-07T03:57:34;70.35;;;46.13;;
24008;SDS011;12217;50.792;4.372;2024-03-07T04:00:00;72.72;;;45.72;;
24008;SDS011;12217;50.792;4.372;2024-03-07T04:02:29;76.28;;;46.35;;
24008;SDS011;12217;50.792;4.372;2024-03-07T04:04:55;76.03;;;47.72;;
24008;SDS011;12217;50.792;4.372;2024-03-07T04:07:20;76.03;;;45.65;;
24008;SDS011;12217;50.792;4.372;2024-03-07T04:09:46;72.80;;;46.88;;
24008;SDS011;12217;50.792;4.372;2024-03-07T04:12:12;77.35;;;46.85;;
24008;SDS011;12217;50.792;4.372;2024-03-07T04:14:42;78.45;;;47.90;;
24008;SDS011;12217;50.792;4.372;2024-03-07T04:17:08;83.22;;;49.25;;
24008;SDS011;12217;50.792;4.372;2024-03-07T04:19:37;72.95;;;46.17;;
24008;SDS011;12217;50.792;4.372;2024-03-07T04:22:03;77.20;;;47.85;;
24008;SDS011;12217;50.792;4.372;2024-03-07T04:24:32;74.35;;;46.05;;
24008;SDS011;12217;50.792;4.372;2024-03-07T04:27:01;74.43;;;47.25;;
24008;SDS011;12217;50.792;4.372;2024-03-07T04:29:29;74.95;;;48.13;;
24008;SDS011;12217;50.792;4.372;2024-03-07T04:31:55;80.18;;;48.30;;
24008;SDS011;12217;50.792;4.372;2024-03-07T04:34:21;78.72;;;48.22;;
24008;SDS011;12217;50.792;4.372;2024-03-07T04:36:46;79.43;;;48.55;;
24008;SDS011;12217;50.792;4.372;2024-03-07T04:39:12;76.80;;;47.60;;
24008;SDS011;12217;50.792;4.372;2024-03-07T04:41:50;77.35;;;48.83;;
24008;SDS011;12217;50.792;4.372;2024-03-07T04:44:17;77.93;;;48.35;;
24008;SDS011;12217;50.792;4.372;2024-03-07T04:46:44;76.75;;;49.10;;
24008;SDS011;12217;50.792;4.372;2024-03-07T04:49:10;77.13;;;48.17;;
24008;SDS011;12217;50.792;4.372;2024-03-07T04:51:35;78.82;;;48.92;;
24008;SDS011;12217;50.792;4.372;2024-03-07T04:54:01;79.30;;;47.47;;
24008;SDS011;12217;50.792;4.372;2024-03-07T04:56:26;81.43;;;49.70;;
24008;SDS011;12217;50.792;4.372;2024-03-07T04:58:52;79.25;;;49.50;;
24008;SDS011;12217;50.792;4.372;2024-03-07T05:01:19;77.90;;;48.65;;
24008;SDS011;12217;50.792;4.372;2024-03-07T05:03:45;80.72;;;50.22;;
24008;SDS011;12217;50.792;4.372;2024-03-07T05:06:11;81.55;;;49.67;;
24008;SDS011;12217;50.792;4.372;2024-03-07T05:08:38;81.50;;;49.20;;
24008;SDS011;12217;50.792;4.372;2024-03-07T05:11:03;84.13;;;50.80;;
24008;SDS011;12217;50.792;4.372;2024-03-07T05:13:29;85.82;;;51.80;;
24008;SDS011;12217;50.792;4.372;2024-03-07T05:15:56;79.10;;;49.20;;
24008;SDS011;12217;50.792;4.372;2024-03-07T05:18:22;83.05;;;50.78;;
24008;SDS011;12217;50.792;4.372;2024-03-07T05:20:48;82.95;;;50.70;;
24008;SDS011;12217;50.792;4.372;2024-03-07T05:23:14;83.03;;;50.67;;
24008;SDS011;12217;50.792;4.372;2024-03-07T05:25:39;82.50;;;50.20;;
24008;SDS011;12217;50.792;4.372;2024-03-07T05:28:05;82.40;;;52.13;;
24008;SDS011;12217;50.792;4.372;2024-03-07T05:30:31;87.25;;;52.88;;
24008;SDS011;12217;50.792;4.372;2024-03-07T05:32:58;87.50;;;52.03;;
24008;SDS011;12217;50.792;4.372;2024-03-07T05:35:25;92.25;;;54.25;;
24008;SDS011;12217;50.792;4.372;2024-03-07T05:37:54;92.18;;;55.03;;
24008;SDS011;12217;50.792;4.372;2024-03-07T05:40:21;94.45;;;53.25;;
24008;SDS011;12217;50.792;4.372;2024-03-07T05:42:47;90.35;;;54.45;;
24008;SDS011;12217;50.792;4.372;2024-03-07T05:45:13;94.70;;;55.45;;
24008;SDS011;12217;50.792;4.372;2024-03-07T05:47:42;94.38;;;54.58;;
24008;SDS011;12217;50.792;4.372;2024-03-07T05:50:08;96.25;;;54.90;;
24008;SDS011;12217;50.792;4.372;2024-03-07T05:52:34;99.15;;;55.70;;
24008;SDS011;12217;50.792;4.372;2024-03-07T05:55:00;102.82;;;56.00;;
24008;SDS011;12217;50.792;4.372;2024-03-07T05:57:25;108.40;;;57.55;;
24008;SDS011;12217;50.792;4.372;2024-03-07T05:59:51;105.13;;;59.22;;
24008;SDS011;12217;50.792;4.372;2024-03-07T06:02:16;105.07;;;59.72;;
24008;SDS011;12217;50.792;4.372;2024-03-07T06:04:43;105.80;;;58.70;;
24008;SDS011;12217;50.792;4.372;2024-03-07T06:07:08;108.45;;;59.95;;
24008;SDS011;12217;50.792;4.372;2024-03-07T06:09:35;107.55;;;58.28;;
24008;SDS011;12217;50.792;4.372;2024-03-07T06:12:01;115.50;;;60.35;;
24008;SDS011;12217;50.792;4.372;2024-03-07T06:14:29;110.35;;;59.55;;
24008;SDS011;12217;50.792;4.372;2024-03-07T06:16:55;111.28;;;61.92;;
24008;SDS011;12217;50.792;4.372;2024-03-07T06:19:23;121.40;;;62.50;;
24008;SDS011;12217;50.792;4.372;2024-03-07T06:21:48;110.30;;;61.67;;
24008;SDS011;12217;50.792;4.372;2024-03-07T06:24:14;113.50;;;61.15;;
24008;SDS011;12217;50.792;4.372;2024-03-07T06:26:42;118.55;;;62.08;;
24008;SDS011;12217;50.792;4.372;2024-03-07T06:29:12;108.63;;;61.35;;
24008;SDS011;12217;50.792;4.372;2024-03-07T06:31:40;109.55;;;59.00;;
24008;SDS011;12217;50.792;4.372;2024-03-07T06:34:07;112.28;;;60.33;;
24008;SDS011;12217;50.792;4.372;2024-03-07T06:36:33;114.35;;;60.53;;
24008;SDS011;12217;50.792;4.372;2024-03-07T06:38:59;113.60;;;60.33;;
24008;SDS011;12217;50.792;4.372;2024-03-07T06:41:25;115.88;;;61.72;;
24008;SDS011;12217;50.792;4.372;2024-03-07T06:43:51;110.13;;;59.58;;
24008;SDS011;12217;50.792;4.372;2024-03-07T06:46:20;109.97;;;59.58;;
24008;SDS011;12217;50.792;4.372;2024-03-07T06:48:45;115.75;;;60.03;;
24008;SDS011;12217;50.792;4.372;2024-03-07T06:51:11;111.35;;;59.10;;
24008;SDS011;12217;50.792;4.372;2024-03-07T06:53:38;112.70;;;62.38;;
24008;SDS011;12217;50.792;4.372;2024-03-07T06:56:04;111.82;;;58.60;;
24008;SDS011;12217;50.792;4.372;2024-03-07T06:58:31;113.18;;;59.53;;
24008;SDS011;12217;50.792;4.372;2024-03-07T07:00:57;111.82;;;59.25;;
24008;SDS011;12217;50.792;4.372;2024-03-07T07:03:24;115.35;;;59.60;;
24008;SDS011;12217;50.792;4.372;2024-03-07T07:05:50;111.55;;;60.08;;
24008;SDS011;12217;50.792;4.372;2024-03-07T07:08:15;107.47;;;58.60;;
24008;SDS011;12217;50.792;4.372;2024-03-07T07:10:41;108.38;;;56.90;;
24008;SDS011;12217;50.792;4.372;2024-03-07T07:13:07;106.45;;;57.83;;
24008;SDS011;12217;50.792;4.372;2024-03-07T07:15:33;105.90;;;58.30;;
24008;SDS011;12217;50.792;4.372;2024-03-07T07:17:59;103.03;;;57.38;;
24008;SDS011;12217;50.792;4.372;2024-03-07T07:20:27;104.97;;;56.28;;
24008;SDS011;12217;50.792;4.372;2024-03-07T07:22:53;106.13;;;55.85;;
24008;SDS011;12217;50.792;4.372;2024-03-07T07:25:19;102.57;;;55.38;;
24008;SDS011;12217;50.792;4.372;2024-03-07T07:27:47;100.95;;;55.55;;
24008;SDS011;12217;50.792;4.372;2024-03-07T07:30:14;98.85;;;53.22;;
24008;SDS011;12217;50.792;4.372;2024-03-07T07:32:41;97.22;;;53.42;;
24008;SDS011;12217;50.792;4.372;2024-03-07T07:35:08;96.72;;;53.10;;
24008;SDS011;12217;50.792;4.372;2024-03-07T07:37:39;96.40;;;54.50;;
24008;SDS011;12217;50.792;4.372;2024-03-07T07:40:10;96.85;;;53.45;;
24008;SDS011;12217;50.792;4.372;2024-03-07T07:42:43;92.38;;;53.13;;
24008;SDS011;12217;50.792;4.372;2024-03-07T07:45:13;93.72;;;52.25;;
24008;SDS011;12217;50.792;4.372;2024-03-07T07:47:40;99.50;;;53.08;;
24008;SDS011;12217;50.792;4.372;2024-03-07T07:50:14;97.45;;;53.22;;
24008;SDS011;12217;50.792;4.372;2024-03-07T07:52:48;98.65;;;52.67;;
24008;SDS011;12217;50.792;4.372;2024-03-07T07:55:18;99.35;;;54.70;;
24008;SDS011;12217;50.792;4.372;2024-03-07T07:57:51;99.00;;;52.15;;
24008;SDS011;12217;50.792;4.372;2024-03-07T08:00:22;96.22;;;52.70;;
24008;SDS011;12217;50.792;4.372;2024-03-07T08:02:52;98.85;;;53.47;;
24008;SDS011;12217;50.792;4.372;2024-03-07T08:05:26;100.68;;;52.88;;
24008;SDS011;12217;50.792;4.372;2024-03-07T08:07:57;97.43;;;53.03;;
24008;SDS011;12217;50.792;4.372;2024-03-07T08:10:24;98.03;;;53.40;;
24008;SDS011;12217;50.792;4.372;2024-03-07T08:12:51;101.82;;;54.15;;
24008;SDS011;12217;50.792;4.372;2024-03-07T08:15:17;104.25;;;54.58;;
24008;SDS011;12217;50.792;4.372;2024-03-07T08:17:43;95.85;;;52.00;;
24008;SDS011;12217;50.792;4.372;2024-03-07T08:20:14;103.53;;;54.22;;
24008;SDS011;12217;50.792;4.372;2024-03-07T08:22:42;96.85;;;52.00;;
24008;SDS011;12217;50.792;4.372;2024-03-07T08:25:09;94.15;;;52.72;;
24008;SDS011;12217;50.792;4.372;2024-03-07T08:27:37;92.22;;;50.15;;
24008;SDS011;12217;50.792;4.372;2024-03-07T08:30:04;95.82;;;51.00;;
24008;SDS011;12217;50.792;4.372;2024-03-07T08:32:31;91.93;;;50.22;;
24008;SDS011;12217;50.792;4.372;2024-03-07T08:34:59;90.43;;;49.83;;
24008;SDS011;12217;50.792;4.372;2024-03-07T08:37:31;87.50;;;48.15;;
24008;SDS011;12217;50.792;4.372;2024-03-07T08:39:57;89.65;;;48.63;;
24008;SDS011;12217;50.792;4.372;2024-03-07T08:42:23;90.00;;;47.75;;
24008;SDS011;12217;50.792;4.372;2024-03-07T08:44:48;89.75;;;48.78;;
24008;SDS011;12217;50.792;4.372;2024-03-07T08:47:14;87.53;;;47.50;;
24008;SDS011;12217;50.792;4.372;2024-03-07T08:49:39;82.35;;;45.53;;
24008;SDS011;12217;50.792;4.372;2024-03-07T08:52:05;82.80;;;47.20;;
24008;SDS011;12217;50.792;4.372;2024-03-07T08:54:32;85.45;;;48.72;;
24008;SDS011;12217;50.792;4.372;2024-03-07T08:56:58;88.90;;;46.80;;
24008;SDS011;12217;50.792;4.372;2024-03-07T08:59:24;87.22;;;46.90;;
24008;SDS011;12217;50.792;4.372;2024-03-07T09:01:50;89.07;;;47.55;;
24008;SDS011;12217;50.792;4.372;2024-03-07T09:04:17;88.95;;;47.22;;
24008;SDS011;12217;50.792;4.372;2024-03-07T09:06:43;87.20;;;47.00;;
24008;SDS011;12217;50.792;4.372;2024-03-07T09:09:10;89.38;;;46.70;;
24008;SDS011;12217;50.792;4.372;2024-03-07T09:11:35;82.15;;;44.38;;
24008;SDS011;12217;50.792;4.372;2024-03-07T09:14:02;78.07;;;45.00;;
24008;SDS011;12217;50.792;4.372;2024-03-07T09:16:29;80.32;;;44.30;;
24008;SDS011;12217;50.792;4.372;2024-03-07T09:18:54;77.75;;;44.97;;
24008;SDS011;12217;50.792;4.372;2024-03-07T09:21:20;82.65;;;45.35;;
24008;SDS011;12217;50.792;4.372;2024-03-07T09:23:45;78.13;;;44.20;;
24008;SDS011;12217;50.792;4.372;2024-03-07T09:26:11;77.75;;;44.42;;
24008;SDS011;12217;50.792;4.372;2024-03-07T09:28:36;74.13;;;44.17;;
24008;SDS011;12217;50.792;4.372;2024-03-07T09:31:02;75.35;;;44.53;;
24008;SDS011;12217;50.792;4.372;2024-03-07T09:33:28;74.82;;;43.92;;
24008;SDS011;12217;50.792;4.372;2024-03-07T09:35:53;78.38;;;44.78;;
24008;SDS011;12217;50.792;4.372;2024-03-07T09:38:19;81.00;;;45.42;;
24008;SDS011;12217;50.792;4.372;2024-03-07T09:40:46;78.97;;;46.30;;
24008;SDS011;12217;50.792;4.372;2024-03-07T09:43:12;76.93;;;45.40;;
24008;SDS011;12217;50.792;4.372;2024-03-07T09:45:38;73.47;;;44.55;;
24008;SDS011;12217;50.792;4.372;2024-03-07T09:48:05;77.53;;;45.00;;
24008;SDS011;12217;50.792;4.372;2024-03-07T09:50:34;79.88;;;47.20;;
24008;SDS011;12217;50.792;4.372;2024-03-07T09:53:00;78.03;;;46.65;;
24008;SDS011;12217;50.792;4.372;2024-03-07T09:55:29;75.57;;;44.63;;
24008;SDS011;12217;50.792;4.372;2024-03-07T09:57:56;81.45;;;45.70;;
24008;SDS011;12217;50.792;4.372;2024-03-07T10:00:25;75.63;;;45.53;;
24008;SDS011;12217;50.792;4.372;2024-03-07T10:03:13;74.55;;;45.08;;
24008;SDS011;12217;50.792;4.372;2024-03-07T10:05:39;76.22;;;45.92;;
24008;SDS011;12217;50.792;4.372;2024-03-07T10:08:05;74.28;;;45.28;;
24008;SDS011;12217;50.792;4.372;2024-03-07T10:10:35;70.00;;;43.40;;
24008;SDS011;12217;50.792;4.372;2024-03-07T10:13:01;74.78;;;44.72;;
24008;SDS011;12217;50.792;4.372;2024-03-07T10:15:31;69.15;;;43.22;;
24008;SDS011;12217;50.792;4.372;2024-03-07T10:17:58;70.72;;;44.15;;
24008;SDS011;12217;50.792;4.372;2024-03-07T10:20:25;69.18;;;42.78;;
24008;SDS011;12217;50.792;4.372;2024-03-07T10:22:51;69.90;;;43.95;;
24008;SDS011;12217;50.792;4.372;2024-03-07T10:25:18;66.75;;;42.95;;
24008;SDS011;12217;50.792;4.372;2024-03-07T10:27:45;63.97;;;41.55;;
24008;SDS011;12217;50.792;4.372;2024-03-07T10:30:13;65.57;;;41.60;;
24008;SDS011;12217;50.792;4.372;2024-03-07T10:32:45;58.15;;;39.05;;
24008;SDS011;12217;50.792;4.372;2024-03-07T10:35:12;61.97;;;39.80;;
24008;SDS011;12217;50.792;4.372;2024-03-07T10:37:39;49.33;;;33.60;;
24008;SDS011;12217;50.792;4.372;2024-03-07T10:40:05;55.92;;;37.42;;
24008;SDS011;12217;50.792;4.372;2024-03-07T10:42:41;62.17;;;41.88;;
24008;SDS011;12217;50.792;4.372;2024-03-07T10:45:11;59.63;;;40.05;;
24008;SDS011;12217;50.792;4.372;2024-03-07T10:47:42;56.88;;;40.05;;
24008;SDS011;12217;50.792;4.372;2024-03-07T10:53:29;60.13;;;40.90;;
24008;SDS011;12217;50.792;4.372;2024-03-07T11:01:46;52.10;;;35.22;;
24008;SDS011;12217;50.792;4.372;2024-03-07T11:04:15;53.92;;;38.25;;
24008;SDS011;12217;50.792;4.372;2024-03-07T11:06:43;51.13;;;37.30;;
24008;SDS011;12217;50.792;4.372;2024-03-07T11:09:10;50.88;;;36.53;;
24008;SDS011;12217;50.792;4.372;2024-03-07T11:11:39;49.38;;;36.55;;
24008;SDS011;12217;50.792;4.372;2024-03-07T11:14:06;47.03;;;37.25;;
24008;SDS011;12217;50.792;4.372;2024-03-07T11:16:35;53.75;;;37.85;;
24008;SDS011;12217;50.792;4.372;2024-03-07T11:21:47;51.63;;;36.75;;
24008;SDS011;12217;50.792;4.372;2024-03-07T11:24:31;52.28;;;37.22;;
24008;SDS011;12217;50.792;4.372;2024-03-07T11:27:04;47.58;;;35.65;;
24008;SDS011;12217;50.792;4.372;2024-03-07T11:29:42;48.85;;;36.22;;
24008;SDS011;12217;50.792;4.372;2024-03-07T11:32:11;48.53;;;34.88;;
24008;SDS011;12217;50.792;4.372;2024-03-07T11:34:40;47.38;;;35.28;;
24008;SDS011;12217;50.792;4.372;2024-03-07T11:37:18;49.25;;;36.08;;
24008;SDS011;12217;50.792;4.372;2024-03-07T11:39:47;46.30;;;34.72;;
24008;SDS011;12217;50.792;4.372;2024-03-07T11:42:36;49.40;;;35.55;;
24008;SDS011;12217;50.792;4.372;2024-03-07T11:45:02;44.22;;;33.78;;
24008;SDS011;12217;50.792;4.372;2024-03-07T11:47:37;43.65;;;32.45;;
24008;SDS011;12217;50.792;4.372;2024-03-07T11:50:06;40.33;;;31.52;;
24008;SDS011;12217;50.792;4.372;2024-03-07T11:52:36;45.53;;;31.83;;
24008;SDS011;12217;50.792;4.372;2024-03-07T11:55:07;45.95;;;32.17;;
24008;SDS011;12217;50.792;4.372;2024-03-07T11:57:33;40.67;;;29.10;;
24008;SDS011;12217;50.792;4.372;2024-03-07T11:59:59;43.67;;;31.15;;
24008;SDS011;12217;50.792;4.372;2024-03-07T12:02:33;39.28;;;29.55;;
24008;SDS011;12217;50.792;4.372;2024-03-07T12:04:59;39.67;;;30.98;;
24008;SDS011;12217;50.792;4.372;2024-03-07T12:07:25;42.28;;;29.90;;
24008;SDS011;12217;50.792;4.372;2024-03-07T12:09:51;38.13;;;29.70;;
24008;SDS011;12217;50.792;4.372;2024-03-07T12:12:21;36.58;;;29.27;;
24008;SDS011;12217;50.792;4.372;2024-03-07T12:14:47;36.25;;;29.30;;
24008;SDS011;12217;50.792;4.372;2024-03-07T12:17:16;38.40;;;29.48;;
24008;SDS011;12217;50.792;4.372;2024-03-07T12:19:42;37.45;;;29.33;;
24008;SDS011;12217;50.792;4.372;2024-03-07T12:22:08;39.95;;;28.10;;
24008;SDS011;12217;50.792;4.372;2024-03-07T12:24:38;36.55;;;28.80;;
24008;SDS011;12217;50.792;4.372;2024-03-07T12:27:10;40.10;;;31.00;;
24008;SDS011;12217;50.792;4.372;2024-03-07T12:29:38;38.20;;;28.92;;
24008;SDS011;12217;50.792;4.372;2024-03-07T12:32:08;35.13;;;29.38;;
24008;SDS011;12217;50.792;4.372;2024-03-07T12:34:38;38.13;;;28.63;;
24008;SDS011;12217;50.792;4.372;2024-03-07T12:37:07;36.97;;;28.85;;
24008;SDS011;12217;50.792;4.372;2024-03-07T12:39:34;38.28;;;30.10;;
24008;SDS011;12217;50.792;4.372;2024-03-07T12:42:17;39.30;;;29.83;;
24008;SDS011;12217;50.792;4.372;2024-03-07T12:44:44;41.45;;;30.90;;
24008;SDS011;12217;50.792;4.372;2024-03-07T12:47:11;40.92;;;30.48;;
24008;SDS011;12217;50.792;4.372;2024-03-07T12:49:44;38.90;;;29.77;;
24008;SDS011;12217;50.792;4.372;2024-03-07T12:52:10;38.67;;;30.52;;
24008;SDS011;12217;50.792;4.372;2024-03-07T12:54:40;40.13;;;30.13;;
24008;SDS011;12217;50.792;4.372;2024-03-07T12:57:06;41.15;;;32.22;;
24008;SDS011;12217;50.792;4.372;2024-03-07T12:59:34;40.30;;;31.35;;
24008;SDS011;12217;50.792;4.372;2024-03-07T13:02:02;45.83;;;31.20;;
24008;SDS011;12217;50.792;4.372;2024-03-07T13:04:31;37.80;;;31.70;;
24008;SDS011;12217;50.792;4.372;2024-03-07T13:06:57;41.05;;;31.40;;
24008;SDS011;12217;50.792;4.372;2024-03-07T13:09:25;39.15;;;31.70;;
24008;SDS011;12217;50.792;4.372;2024-03-07T13:11:52;42.67;;;32.05;;
24008;SDS011;12217;50.792;4.372;2024-03-07T13:14:20;41.08;;;30.92;;
24008;SDS011;12217;50.792;4.372;2024-03-07T13:16:46;37.20;;;31.08;;
24008;SDS011;12217;50.792;4.372;2024-03-07T13:19:12;41.13;;;32.95;;
24008;SDS011;12217;50.792;4.372;2024-03-07T13:21:39;40.65;;;31.95;;
24008;SDS011;12217;50.792;4.372;2024-03-07T13:24:05;41.17;;;33.45;;
24008;SDS011;12217;50.792;4.372;2024-03-07T13:26:33;37.95;;;30.90;;
24008;SDS011;12217;50.792;4.372;2024-03-07T13:28:59;41.33;;;31.65;;
24008;SDS011;12217;50.792;4.372;2024-03-07T13:31:27;39.78;;;32.65;;
24008;SDS011;12217;50.792;4.372;2024-03-07T13:33:54;39.78;;;31.25;;
24008;SDS011;12217;50.792;4.372;2024-03-07T13:36:20;42.75;;;32.42;;
24008;SDS011;12217;50.792;4.372;2024-03-07T13:38:50;39.45;;;31.33;;
24008;SDS011;12217;50.792;4.372;2024-03-07T13:41:20;38.38;;;31.90;;
24008;SDS011;12217;50.792;4.372;2024-03-07T13:43:46;37.42;;;30.98;;
24008;SDS011;12217;50.792;4.372;2024-03-07T13:46:13;38.55;;;30.38;;
24008;SDS011;12217;50.792;4.372;2024-03-07T13:48:40;34.90;;;29.27;;
24008;SDS011;12217;50.792;4.372;2024-03-07T13:51:07;37.15;;;28.55;;
24008;SDS011;12217;50.792;4.372;2024-03-07T13:53:33;37.40;;;29.02;;
24008;SDS011;12217;50.792;4.372;2024-03-07T14:15:18;35.78;;;28.98;;
24008;SDS011;12217;50.792;4.372;2024-03-07T14:27:04;31.65;;;27.83;;
24008;SDS011;12217;50.792;4.372;2024-03-07T14:32:38;30.00;;;25.80;;
24008;SDS011;12217;50.792;4.372;2024-03-07T14:40:28;28.52;;;23.58;;
24008;SDS011;12217;50.792;4.372;2024-03-07T14:42:54;29.63;;;24.42;;
24008;SDS011;12217;50.792;4.372;2024-03-07T14:45:23;31.17;;;23.13;;
24008;SDS011;12217;50.792;4.372;2024-03-07T14:50:20;36.42;;;24.95;;
24008;SDS011;12217;50.792;4.372;2024-03-07T14:52:47;29.88;;;24.10;;
24008;SDS011;12217;50.792;4.372;2024-03-07T14:55:13;32.22;;;23.65;;
24008;SDS011;12217;50.792;4.372;2024-03-07T14:57:40;27.05;;;23.42;;
24008;SDS011;12217;50.792;4.372;2024-03-07T15:00:06;29.67;;;23.85;;
24008;SDS011;12217;50.792;4.372;2024-03-07T15:02:43;28.95;;;24.02;;
24008;SDS011;12217;50.792;4.372;2024-03-07T15:05:12;35.28;;;23.88;;
24008;SDS011;12217;50.792;4.372;2024-03-07T15:07:39;30.13;;;25.73;;
24008;SDS011;12217;50.792;4.372;2024-03-07T15:10:06;29.60;;;24.45;;
24008;SDS011;12217;50.792;4.372;2024-03-07T15:12:43;29.77;;;24.52;;